createdAt,value
2023-12-16T00:02:28.666Z,6.00
2023-12-16T00:04:57.151Z,5.62
2023-12-16T00:07:24.529Z,5.70
2023-12-16T00:09:52.761Z,5.20
2023-12-16T00:12:21.414Z,5.00
2023-12-16T00:14:49.666Z,4.70
2023-12-16T00:17:17.544Z,5.08
2023-12-16T00:19:48.589Z,4.85
2023-12-16T00:22:17.376Z,4.50
2023-12-16T00:24:45.463Z,4.50
2023-12-16T00:27:12.824Z,4.10
2023-12-16T00:29:45.448Z,4.22
2023-12-16T00:32:13.490Z,4.10
2023-12-16T00:34:41.331Z,3.80
2023-12-16T00:37:09.766Z,4.17
2023-12-16T00:39:37.721Z,3.80
2023-12-16T00:42:06.299Z,3.25
2023-12-16T00:44:35.323Z,3.60
2023-12-16T00:47:04.399Z,3.17
2023-12-16T00:49:32.789Z,3.75
2023-12-16T00:52:02.155Z,3.05
2023-12-16T00:54:30.214Z,3.22
2023-12-16T00:56:58.150Z,2.85
2023-12-16T00:59:27.775Z,2.95
2023-12-16T01:01:55.440Z,2.72
2023-12-16T01:04:23.370Z,2.60
2023-12-16T01:06:51.469Z,3.27
2023-12-16T01:09:19.330Z,3.15
2023-12-16T01:11:47.487Z,2.30
2023-12-16T01:14:17.708Z,2.70
2023-12-16T01:16:45.876Z,2.70
2023-12-16T01:19:14.322Z,2.87
2023-12-16T01:21:43.898Z,2.60
2023-12-16T01:24:11.364Z,2.70
2023-12-16T01:26:42.767Z,2.58
2023-12-16T01:29:10.482Z,2.17
2023-12-16T01:31:38.762Z,2.75
2023-12-16T01:34:09.055Z,2.40
2023-12-16T01:36:36.797Z,2.30
2023-12-16T01:39:05.117Z,2.20
2023-12-16T01:41:33.363Z,2.35
2023-12-16T01:44:01.541Z,2.22
2023-12-16T01:46:30.164Z,2.30
2023-12-16T01:48:58.215Z,2.05
2023-12-16T01:51:26.928Z,1.85
2023-12-16T01:53:54.985Z,2.10
2023-12-16T01:56:23.696Z,4.35
2023-12-16T01:58:51.827Z,2.52
2023-12-16T02:01:20.378Z,1.92
2023-12-16T02:03:49.394Z,1.82
2023-12-16T02:06:17.791Z,2.45
2023-12-16T02:08:46.053Z,1.90
2023-12-16T02:11:13.705Z,2.37
2023-12-16T02:13:44.011Z,2.10
2023-12-16T02:16:15.258Z,2.17
2023-12-16T02:18:42.994Z,1.80
2023-12-16T02:21:12.089Z,1.98
2023-12-16T02:23:40.775Z,1.90
2023-12-16T02:26:09.613Z,1.47
2023-12-16T02:28:37.279Z,1.27
2023-12-16T02:31:05.912Z,1.77
2023-12-16T02:33:37.159Z,1.80
2023-12-16T02:36:06.386Z,1.10
2023-12-16T02:38:34.900Z,1.50
2023-12-16T02:41:02.882Z,1.67
2023-12-16T02:43:32.162Z,1.30
2023-12-16T02:46:01.482Z,1.35
2023-12-16T02:48:29.160Z,1.62
2023-12-16T02:50:57.038Z,1.65
2023-12-16T02:53:28.824Z,1.40
2023-12-16T02:55:57.972Z,1.52
2023-12-16T02:58:26.023Z,1.52
2023-12-16T03:00:53.749Z,1.45
2023-12-16T03:03:21.598Z,1.55
2023-12-16T03:05:49.948Z,1.60
2023-12-16T03:08:18.656Z,1.65
2023-12-16T03:10:46.855Z,1.30
2023-12-16T03:13:14.757Z,1.32
2023-12-16T03:15:43.092Z,1.30
2023-12-16T03:18:16.080Z,1.55
2023-12-16T03:20:44.384Z,1.50
2023-12-16T03:23:15.604Z,1.30
2023-12-16T03:25:55.517Z,1.15
2023-12-16T03:28:23.359Z,1.40
2023-12-16T03:30:51.322Z,1.60
2023-12-16T03:33:19.552Z,1.12
2023-12-16T03:35:47.214Z,1.22
2023-12-16T03:38:15.140Z,1.40
2023-12-16T03:40:43.501Z,1.25
2023-12-16T03:43:14.374Z,1.17
2023-12-16T03:45:42.545Z,1.20
2023-12-16T03:48:10.618Z,1.27
2023-12-16T03:50:38.296Z,1.32
2023-12-16T03:53:06.418Z,1.40
2023-12-16T03:55:34.345Z,1.55
2023-12-16T03:58:02.777Z,1.60
2023-12-16T04:00:30.522Z,1.42
2023-12-16T04:02:59.908Z,1.17
2023-12-16T04:05:27.744Z,1.10
2023-12-16T04:07:56.166Z,1.17
2023-12-16T04:10:24.292Z,1.50
2023-12-16T04:12:52.454Z,1.30
2023-12-16T04:15:20.004Z,1.30
2023-12-16T04:17:48.659Z,1.70
2023-12-16T04:20:16.629Z,1.70
2023-12-16T04:22:44.716Z,1.52
2023-12-16T04:25:12.817Z,1.40
2023-12-16T04:27:41.325Z,1.40
2023-12-16T04:30:15.653Z,1.30
2023-12-16T04:32:44.159Z,1.45
2023-12-16T04:35:12.146Z,1.47
2023-12-16T04:37:41.556Z,1.37
2023-12-16T04:40:10.487Z,1.07
2023-12-16T04:42:41.408Z,1.00
2023-12-16T04:45:10.268Z,1.17
2023-12-16T04:47:39.150Z,1.20
2023-12-16T04:50:07.894Z,1.30
2023-12-16T04:52:39.094Z,1.52
2023-12-16T04:55:08.305Z,1.20
2023-12-16T04:57:36.242Z,1.45
2023-12-16T05:00:06.130Z,1.10
2023-12-16T05:02:33.986Z,1.20
2023-12-16T05:05:01.952Z,1.17
2023-12-16T05:07:29.824Z,1.20
2023-12-16T05:09:59.652Z,0.90
2023-12-16T05:12:35.464Z,0.90
2023-12-16T05:14:57.341Z,1.20
2023-12-16T05:17:25.412Z,1.15
2023-12-16T05:19:54.744Z,1.22
2023-12-16T05:22:24.743Z,1.20
2023-12-16T05:24:52.571Z,1.10
2023-12-16T05:27:20.449Z,1.15
2023-12-16T05:29:48.786Z,1.27
2023-12-16T05:32:17.176Z,1.22
2023-12-16T05:34:45.166Z,1.10
2023-12-16T05:37:13.404Z,1.15
2023-12-16T05:39:42.723Z,1.20
2023-12-16T05:42:11.889Z,1.22
2023-12-16T05:44:40.325Z,1.12
2023-12-16T05:47:09.003Z,1.30
2023-12-16T05:49:38.397Z,1.55
2023-12-16T05:52:07.018Z,2.12
2023-12-16T05:54:35.418Z,1.30
2023-12-16T05:57:02.857Z,1.70
2023-12-16T05:59:31.130Z,1.57
2023-12-16T06:01:59.091Z,1.50
2023-12-16T06:04:31.138Z,1.45
2023-12-16T06:06:59.076Z,1.15
2023-12-16T06:09:27.012Z,1.55
2023-12-16T06:11:59.533Z,1.47
2023-12-16T06:14:27.483Z,1.75
2023-12-16T06:16:55.420Z,1.10
2023-12-16T06:19:28.033Z,1.15
2023-12-16T06:21:55.880Z,1.55
2023-12-16T06:24:24.026Z,1.22
2023-12-16T06:26:53.384Z,1.22
2023-12-16T06:32:10.387Z,1.15
2023-12-16T06:34:39.297Z,2.20
2023-12-16T06:37:10.269Z,1.85
2023-12-16T06:39:38.345Z,2.10
2023-12-16T06:42:06.201Z,1.37
2023-12-16T06:44:34.095Z,2.22
2023-12-16T06:47:01.830Z,1.25
2023-12-16T06:49:30.048Z,1.40
2023-12-16T06:51:57.989Z,1.47
2023-12-16T06:54:31.380Z,1.87
2023-12-16T06:56:59.625Z,1.40
2023-12-16T06:59:28.515Z,1.20
2023-12-16T07:01:56.745Z,1.20
2023-12-16T07:04:25.678Z,1.55
2023-12-16T07:06:57.018Z,1.20
2023-12-16T07:09:24.854Z,1.40
2023-12-16T07:11:52.817Z,1.57
2023-12-16T07:14:22.512Z,1.82
2023-12-16T07:16:53.536Z,1.85
2023-12-16T07:19:20.392Z,1.85
2023-12-16T07:21:49.385Z,1.52
2023-12-16T07:24:17.243Z,1.98
2023-12-16T07:26:45.086Z,1.70
2023-12-16T07:29:13.160Z,1.77
2023-12-16T07:31:42.555Z,1.75
2023-12-16T07:34:11.818Z,1.80
2023-12-16T07:36:40.800Z,1.90
2023-12-16T07:39:08.747Z,1.65
2023-12-16T07:41:36.996Z,2.05
2023-12-16T07:44:05.160Z,1.60
2023-12-16T07:46:33.127Z,1.40
2023-12-16T07:49:01.597Z,1.47
2023-12-16T07:51:29.669Z,1.50
2023-12-16T07:53:59.980Z,1.87
2023-12-16T07:56:30.454Z,1.60
2023-12-16T07:59:00.784Z,2.12
2023-12-16T08:01:28.580Z,2.22
2023-12-16T08:03:56.775Z,2.35
2023-12-16T08:06:24.967Z,2.42
2023-12-16T08:08:52.861Z,2.00
2023-12-16T08:11:20.830Z,1.98
2023-12-16T08:13:48.667Z,1.82
2023-12-16T08:16:16.866Z,2.17
2023-12-16T08:18:44.518Z,1.40
2023-12-16T08:21:12.835Z,1.80
2023-12-16T08:23:42.081Z,1.85
2023-12-16T08:26:12.062Z,2.47
2023-12-16T08:28:41.798Z,2.20
2023-12-16T08:31:09.803Z,1.98
2023-12-16T08:33:37.989Z,1.62
2023-12-16T08:36:08.057Z,1.87
2023-12-16T08:38:40.479Z,1.65
2023-12-16T08:41:09.818Z,2.15
2023-12-16T08:43:38.171Z,3.35
2023-12-16T08:46:08.762Z,2.98
2023-12-16T08:48:36.969Z,2.92
2023-12-16T08:51:06.252Z,3.40
2023-12-16T08:53:34.590Z,3.75
2023-12-16T08:56:02.275Z,3.77
2023-12-16T08:58:30.379Z,4.08
2023-12-16T09:00:59.045Z,3.77
2023-12-16T09:03:27.977Z,3.90
2023-12-16T09:05:55.928Z,2.72
2023-12-16T09:08:24.558Z,2.02
2023-12-16T09:10:52.589Z,2.20
2023-12-16T09:13:20.721Z,2.22
2023-12-16T09:15:49.831Z,1.60
2023-12-16T09:18:17.917Z,1.87
2023-12-16T09:20:46.213Z,2.02
2023-12-16T09:23:14.196Z,1.60
2023-12-16T09:25:41.942Z,2.30
2023-12-16T09:28:10.136Z,2.58
2023-12-16T09:30:38.190Z,3.75
2023-12-16T09:33:07.724Z,2.87
2023-12-16T09:35:36.047Z,2.92
2023-12-16T09:38:04.171Z,3.47
2023-12-16T09:40:36.111Z,2.60
2023-12-16T09:43:13.521Z,1.95
2023-12-16T09:45:41.537Z,4.10
2023-12-16T09:48:10.941Z,2.60
2023-12-16T09:50:40.803Z,3.58
2023-12-16T09:53:08.759Z,2.80
2023-12-16T09:55:37.238Z,3.00
2023-12-16T09:58:06.932Z,3.10
2023-12-16T10:00:37.393Z,3.58
2023-12-16T10:03:05.482Z,3.27
2023-12-16T10:05:36.102Z,3.67
2023-12-16T10:08:06.380Z,3.98
2023-12-16T10:10:34.553Z,3.80
2023-12-16T10:13:09.022Z,3.45
2023-12-16T10:15:38.448Z,5.10
2023-12-16T10:18:06.558Z,5.30
2023-12-16T10:20:34.336Z,4.67
2023-12-16T10:23:03.514Z,4.92
2023-12-16T10:25:33.284Z,5.25
2023-12-16T10:28:03.914Z,5.47
2023-12-16T10:30:35.350Z,4.37
2023-12-16T10:33:05.592Z,4.97
2023-12-16T10:35:34.514Z,5.15
2023-12-16T10:38:03.803Z,4.17
2023-12-16T10:40:31.335Z,7.85
2023-12-16T10:42:59.277Z,5.20
2023-12-16T10:45:27.340Z,4.78
2023-12-16T10:47:57.846Z,4.87
2023-12-16T10:50:28.376Z,4.33
2023-12-16T10:52:58.423Z,3.65
2023-12-16T10:55:39.313Z,3.65
2023-12-16T10:58:19.225Z,2.77
2023-12-16T11:00:51.081Z,2.50
2023-12-16T11:03:28.300Z,2.25
2023-12-16T11:06:06.276Z,2.12
2023-12-16T11:08:38.340Z,2.15
2023-12-16T11:11:07.772Z,2.25
2023-12-16T11:13:36.968Z,1.82
2023-12-16T11:16:08.451Z,2.22
2023-12-16T11:18:37.998Z,2.72
2023-12-16T11:21:09.556Z,2.22
2023-12-16T11:23:48.510Z,2.12
2023-12-16T11:26:19.611Z,1.85
2023-12-16T11:28:56.958Z,1.90
2023-12-16T11:31:25.380Z,2.20
2023-12-16T11:33:53.124Z,2.90
2023-12-16T11:36:41.877Z,3.65
2023-12-16T11:39:16.626Z,15.30
2023-12-16T11:41:45.072Z,7.40
2023-12-16T11:44:13.067Z,7.25
2023-12-16T11:46:43.616Z,4.62
2023-12-16T11:49:18.849Z,5.90
2023-12-16T18:23:16.766Z,6.65
2023-12-16T18:25:45.087Z,6.50
2023-12-16T18:28:12.944Z,6.00
2023-12-16T18:30:41.285Z,6.65
2023-12-16T18:33:13.826Z,6.62
2023-12-16T18:35:42.023Z,6.58
2023-12-16T18:38:10.309Z,6.83
2023-12-16T18:40:39.094Z,6.10
2023-12-16T18:43:07.304Z,7.22
2023-12-16T18:45:38.215Z,6.87
2023-12-16T18:48:06.969Z,8.55
2023-12-16T18:50:35.257Z,7.15
2023-12-16T18:53:02.940Z,7.70
2023-12-16T18:55:31.259Z,8.15
2023-12-16T18:57:58.980Z,7.75
2023-12-16T19:00:27.450Z,7.42
2023-12-16T19:02:57.123Z,7.12
2023-12-16T19:05:25.086Z,6.92
2023-12-16T19:07:53.156Z,7.78
2023-12-16T19:10:21.760Z,7.17
2023-12-16T19:12:49.972Z,7.12
2023-12-16T19:15:18.482Z,7.00
2023-12-16T19:17:46.941Z,6.42
2023-12-16T19:20:17.096Z,6.62
2023-12-16T19:22:45.063Z,6.80
2023-12-16T19:25:13.372Z,6.72
2023-12-16T19:27:40.807Z,6.67
2023-12-16T19:30:09.436Z,6.80
2023-12-16T19:32:37.231Z,6.92
2023-12-16T19:35:12.477Z,7.50
2023-12-16T19:37:40.645Z,7.15
2023-12-16T19:40:09.470Z,6.67
2023-12-16T19:42:39.229Z,6.95
2023-12-16T19:45:08.352Z,7.33
2023-12-16T19:47:36.611Z,7.17
2023-12-16T19:50:08.050Z,6.47
2023-12-16T19:52:36.136Z,6.17
2023-12-16T19:55:04.021Z,6.35
2023-12-16T19:57:35.221Z,6.85
2023-12-16T20:00:03.740Z,6.28
2023-12-16T20:02:34.135Z,6.90
2023-12-16T20:05:02.384Z,6.30
2023-12-16T20:07:29.910Z,7.33
2023-12-16T20:09:59.123Z,6.80
2023-12-16T20:12:30.300Z,6.87
2023-12-16T20:14:58.600Z,6.47
2023-12-16T20:17:27.470Z,6.45
2023-12-16T20:19:57.153Z,7.40
2023-12-16T20:22:25.194Z,8.58
2023-12-16T20:24:53.488Z,8.48
2023-12-16T20:27:21.067Z,6.58
2023-12-16T20:29:49.101Z,6.60
2023-12-16T20:32:18.741Z,6.10
2023-12-16T20:34:47.933Z,6.37
2023-12-16T20:37:17.768Z,6.65
2023-12-16T20:40:03.879Z,6.10
2023-12-16T20:42:33.862Z,6.12
2023-12-16T20:45:01.105Z,7.05
2023-12-16T20:47:30.261Z,6.15
2023-12-16T20:50:00.787Z,6.35
2023-12-16T20:52:29.613Z,6.37
2023-12-16T20:54:58.122Z,6.20
2023-12-16T20:57:25.871Z,6.75
2023-12-16T20:59:56.647Z,5.67
2023-12-16T21:02:25.905Z,6.72
2023-12-16T21:04:53.520Z,5.78
2023-12-16T21:07:21.510Z,6.28
2023-12-16T21:09:49.449Z,5.62
2023-12-16T21:12:17.177Z,5.83
2023-12-16T21:14:46.245Z,5.67
2023-12-16T21:17:14.421Z,5.55
2023-12-16T21:19:42.479Z,5.53
2023-12-16T21:22:10.429Z,5.53
2023-12-16T21:24:39.705Z,5.33
2023-12-16T21:27:10.569Z,5.50
2023-12-16T21:29:39.263Z,6.12
2023-12-16T21:32:07.218Z,5.20
2023-12-16T21:34:35.092Z,5.20
2023-12-16T21:37:05.192Z,5.37
2023-12-16T21:39:33.143Z,5.17
2023-12-16T21:42:02.014Z,7.08
2023-12-16T21:44:33.418Z,5.47
2023-12-16T21:47:01.427Z,5.40
2023-12-16T21:49:29.179Z,5.28
2023-12-16T21:51:57.397Z,5.55
2023-12-16T21:54:25.627Z,5.70
2023-12-16T21:56:54.341Z,4.90
2023-12-16T21:59:22.557Z,4.72
2023-12-16T22:01:51.182Z,5.22
2023-12-16T22:04:19.081Z,4.85
2023-12-16T22:06:47.144Z,5.20
2023-12-16T22:09:15.199Z,5.55
2023-12-16T22:11:47.677Z,5.03
2023-12-16T22:14:15.438Z,7.42
2023-12-16T22:16:43.432Z,6.17
2023-12-16T22:19:11.589Z,4.72
2023-12-16T22:21:43.139Z,4.72
2023-12-16T22:24:13.330Z,4.83
2023-12-16T22:26:41.579Z,5.00
2023-12-16T22:29:09.674Z,4.42
2023-12-16T22:31:39.415Z,4.83
2023-12-16T22:34:08.826Z,4.95
2023-12-16T22:36:39.697Z,5.33
2023-12-16T22:39:07.530Z,5.25
2023-12-16T22:41:35.458Z,4.25
2023-12-16T22:44:03.159Z,5.37
2023-12-16T22:46:31.284Z,4.62
2023-12-16T22:48:58.990Z,4.35
2023-12-16T22:51:27.599Z,4.62
2023-12-16T22:53:55.722Z,5.33
2023-12-16T22:56:24.701Z,4.17
2023-12-16T22:58:52.470Z,4.20
2023-12-16T23:01:20.892Z,3.42
2023-12-16T23:03:49.329Z,4.37
2023-12-16T23:06:17.344Z,3.87
2023-12-16T23:08:47.304Z,3.85
2023-12-16T23:11:15.485Z,3.50
2023-12-16T23:13:43.590Z,3.35
2023-12-16T23:16:11.428Z,3.60
2023-12-16T23:18:39.272Z,3.50
2023-12-16T23:21:07.641Z,3.50
2023-12-16T23:23:35.997Z,3.92
2023-12-16T23:26:04.104Z,3.87
2023-12-16T23:28:35.128Z,3.65
2023-12-16T23:31:10.982Z,3.35
2023-12-16T23:33:33.956Z,3.12
2023-12-16T23:36:01.748Z,3.33
2023-12-16T23:38:30.765Z,3.17
2023-12-16T23:40:59.200Z,3.72
2023-12-16T23:43:27.340Z,2.87
2023-12-16T23:45:55.528Z,3.45
2023-12-16T23:48:24.136Z,3.90
2023-12-16T23:50:52.224Z,3.60
2023-12-16T23:53:20.627Z,3.27
2023-12-16T23:55:48.757Z,3.20
2023-12-16T23:58:17.240Z,2.90
